createdAt,value
2022-10-12T00:06:24.799Z,15.18
2022-10-12T00:13:07.434Z,14.52
2022-10-12T00:19:50.718Z,14.25
2022-10-12T00:26:33.461Z,14.48
2022-10-12T00:33:15.761Z,14.80
2022-10-12T00:39:58.094Z,15.07
2022-10-12T00:46:46.613Z,14.35
2022-10-12T00:53:37.157Z,15.70
2022-10-12T01:00:20.661Z,16.10
2022-10-12T01:07:03.033Z,17.20
2022-10-12T01:13:45.372Z,15.38
2022-10-12T01:20:33.745Z,15.32
2022-10-12T01:27:24.881Z,15.13
2022-10-12T01:34:12.037Z,15.52
2022-10-12T01:41:03.219Z,16.98
2022-10-12T01:47:52.452Z,19.35
2022-10-12T01:55:02.363Z,18.55
2022-10-12T02:02:16.274Z,18.05
2022-10-12T02:09:05.562Z,17.63
2022-10-12T02:15:49.088Z,18.02
2022-10-12T02:22:35.659Z,17.60
2022-10-12T02:29:24.100Z,18.27
2022-10-12T02:36:13.022Z,16.65
2022-10-12T02:43:10.553Z,18.15
2022-10-12T02:49:55.896Z,17.63
2022-10-12T02:56:45.988Z,18.73
2022-10-12T03:03:28.686Z,17.98
2022-10-12T03:10:11.631Z,15.77
2022-10-12T03:16:54.046Z,16.77
2022-10-12T03:23:36.844Z,16.33
2022-10-12T03:30:19.196Z,15.65
2022-10-12T03:37:01.503Z,17.13
2022-10-12T03:43:52.335Z,17.52
2022-10-12T03:50:35.456Z,17.65
2022-10-12T03:57:17.764Z,18.63
2022-10-12T04:04:00.230Z,17.33
2022-10-12T04:10:43.802Z,18.33
2022-10-12T04:17:26.334Z,18.13
2022-10-12T04:24:08.695Z,17.35
2022-10-12T04:30:50.998Z,18.17
2022-10-12T04:37:33.506Z,17.42
2022-10-12T04:44:19.473Z,17.15
2022-10-12T04:51:01.844Z,18.45
2022-10-12T04:57:44.387Z,16.85
2022-10-12T05:04:26.734Z,16.73
2022-10-12T05:11:09.278Z,17.83
2022-10-12T05:17:51.687Z,16.73
2022-10-12T05:24:34.082Z,16.83
2022-10-12T05:31:16.428Z,16.50
2022-10-12T05:37:58.880Z,17.02
2022-10-12T05:44:41.457Z,16.83
2022-10-12T05:51:28.579Z,17.67
2022-10-12T05:58:12.297Z,16.10
2022-10-12T06:04:54.669Z,21.05
2022-10-12T06:11:37.007Z,16.95
2022-10-12T06:18:19.439Z,17.45
2022-10-12T06:25:01.977Z,18.35
2022-10-12T06:31:48.937Z,19.80
2022-10-12T06:38:33.651Z,17.40
2022-10-12T06:45:16.955Z,17.02
2022-10-12T06:51:59.308Z,16.92
2022-10-12T06:58:42.001Z,16.70
2022-10-12T07:05:24.522Z,16.77
2022-10-12T07:12:06.999Z,17.05
2022-10-12T07:18:49.421Z,17.05
2022-10-12T07:25:32.305Z,16.10
2022-10-12T07:32:14.716Z,16.70
2022-10-12T07:38:57.038Z,19.20
2022-10-12T07:45:39.811Z,19.13
2022-10-12T07:52:27.332Z,19.75
2022-10-12T07:59:09.679Z,19.20
2022-10-12T08:05:52.018Z,20.02
2022-10-12T08:12:34.386Z,20.40
2022-10-12T08:19:16.955Z,19.50
2022-10-12T08:25:59.564Z,20.52
2022-10-12T08:32:42.159Z,22.08
2022-10-12T08:39:24.683Z,22.30
2022-10-12T08:46:07.426Z,21.75
2022-10-12T08:53:01.666Z,22.13
2022-10-12T08:59:45.668Z,21.88
2022-10-12T09:07:07.947Z,19.27
2022-10-12T09:14:01.916Z,18.92
2022-10-12T09:20:52.243Z,17.92
2022-10-12T09:27:35.220Z,18.33
2022-10-12T09:34:19.356Z,14.63
2022-10-12T09:41:02.184Z,15.38
2022-10-12T09:48:24.304Z,15.77
2022-10-12T09:55:23.500Z,16.38
2022-10-12T10:02:16.127Z,17.55
2022-10-12T10:08:58.445Z,14.57
2022-10-12T10:15:45.679Z,13.32
2022-10-12T10:22:29.641Z,13.55
2022-10-12T10:29:23.578Z,14.05
2022-10-12T10:36:23.135Z,12.65
2022-10-12T10:43:16.238Z,12.20
2022-10-12T10:50:01.693Z,13.27
2022-10-12T10:56:46.526Z,11.80
2022-10-12T11:03:55.457Z,11.13
2022-10-12T11:10:44.246Z,10.43
2022-10-12T11:17:34.683Z,9.63
2022-10-12T11:24:42.224Z,10.27
2022-10-12T11:31:28.544Z,10.00
2022-10-12T11:38:28.849Z,8.48
2022-10-12T11:45:33.382Z,8.80
2022-10-12T11:52:17.869Z,8.07
2022-10-12T11:59:05.923Z,9.43
2022-10-12T12:05:48.357Z,10.23
2022-10-12T12:12:30.688Z,9.13
2022-10-12T12:19:35.205Z,9.27
2022-10-12T12:26:20.114Z,9.98
2022-10-12T12:33:07.122Z,9.52
2022-10-12T12:39:58.043Z,8.15
2022-10-12T12:46:55.385Z,8.00
2022-10-12T12:53:42.437Z,9.20
2022-10-12T13:00:26.644Z,9.18
2022-10-12T13:07:31.386Z,7.60
2022-10-12T13:14:32.910Z,7.00
2022-10-12T13:21:23.571Z,8.43
2022-10-12T13:28:11.571Z,8.23
2022-10-12T13:34:56.816Z,8.30
2022-10-12T13:41:40.252Z,7.93
2022-10-12T13:48:46.303Z,7.35
2022-10-12T13:55:27.269Z,7.60
2022-10-12T14:02:23.628Z,7.13
2022-10-12T14:09:14.959Z,7.22
2022-10-12T14:15:59.726Z,8.93
2022-10-12T14:22:47.890Z,8.48
2022-10-12T14:29:39.397Z,8.45
2022-10-12T14:36:22.212Z,7.60
2022-10-12T14:43:20.988Z,6.30
2022-10-12T14:50:08.345Z,6.18
2022-10-12T14:56:50.723Z,6.95
2022-10-12T15:03:33.148Z,7.22
2022-10-12T15:10:17.367Z,7.18
2022-10-12T15:17:03.295Z,7.60
2022-10-12T15:23:46.416Z,7.60
2022-10-12T15:30:33.953Z,7.72
2022-10-12T15:37:18.230Z,8.60
2022-10-12T15:44:19.612Z,7.07
2022-10-12T15:51:03.785Z,8.60
2022-10-12T15:57:46.602Z,7.35
2022-10-12T16:04:28.971Z,7.10
2022-10-12T16:11:13.887Z,7.53
2022-10-12T16:17:56.997Z,6.97
2022-10-12T16:24:39.323Z,7.50
2022-10-12T16:31:21.662Z,8.30
2022-10-12T16:38:04.026Z,7.45
2022-10-12T16:44:46.448Z,7.85
2022-10-12T16:51:28.828Z,8.85
2022-10-12T16:58:16.881Z,8.88
2022-10-12T17:05:00.889Z,9.07
2022-10-12T17:12:13.343Z,8.60
2022-10-12T17:18:59.619Z,10.80
2022-10-12T17:25:44.459Z,10.40
2022-10-12T17:32:27.062Z,9.68
2022-10-12T17:39:09.518Z,10.65
2022-10-12T17:45:52.224Z,11.05
2022-10-12T17:52:39.301Z,11.18
2022-10-12T17:59:22.434Z,11.15
2022-10-12T18:06:06.737Z,10.40
2022-10-12T18:12:49.378Z,12.20
2022-10-12T18:19:32.455Z,12.63
2022-10-12T18:26:19.632Z,14.85
2022-10-12T18:33:01.990Z,11.80
2022-10-12T18:39:46.877Z,13.18
2022-10-12T18:46:31.842Z,12.77
2022-10-12T18:53:14.839Z,12.90
2022-10-12T18:59:57.160Z,15.65
2022-10-12T19:06:43.977Z,13.40
2022-10-12T19:13:26.377Z,12.60
2022-10-12T19:20:09.149Z,14.13
2022-10-12T19:26:51.687Z,13.40
2022-10-12T19:33:34.047Z,13.80
2022-10-12T19:40:16.414Z,12.88
2022-10-12T19:46:59.982Z,13.52
2022-10-12T19:53:48.151Z,13.48
2022-10-12T20:00:36.243Z,15.00
2022-10-12T20:07:18.811Z,15.13
2022-10-12T20:14:01.754Z,14.55
2022-10-12T20:20:44.119Z,16.45
2022-10-12T20:27:26.645Z,16.38
2022-10-12T20:34:09.110Z,18.55
2022-10-12T20:41:10.288Z,16.65
2022-10-12T20:47:52.841Z,18.42
2022-10-12T20:54:36.091Z,18.08
2022-10-12T21:01:18.532Z,19.00
2022-10-12T21:08:05.868Z,17.88
2022-10-12T21:14:49.984Z,19.13
2022-10-12T21:21:35.027Z,18.20
2022-10-12T21:28:17.734Z,19.52
2022-10-12T21:35:04.946Z,19.83
2022-10-12T21:41:48.952Z,19.27
2022-10-12T21:48:32.886Z,19.50
2022-10-12T21:55:15.718Z,18.80
2022-10-12T22:01:58.359Z,19.00
2022-10-12T22:08:40.927Z,20.40
2022-10-12T22:15:28.667Z,20.83
2022-10-12T22:22:12.171Z,19.80
2022-10-12T22:28:55.045Z,20.30
2022-10-12T22:35:37.376Z,21.48
2022-10-12T22:42:20.111Z,21.75
2022-10-12T22:49:03.400Z,21.55
2022-10-12T22:55:46.733Z,24.25
2022-10-12T23:02:29.661Z,21.58
2022-10-12T23:09:32.219Z,20.33
2022-10-12T23:16:24.386Z,24.30
2022-10-12T23:23:07.427Z,20.88
2022-10-12T23:29:50.204Z,20.35
2022-10-12T23:36:33.382Z,19.75
2022-10-12T23:43:15.742Z,19.33
2022-10-12T23:50:00.372Z,21.65
2022-10-12T23:56:42.738Z,19.63
